KBKD/BKD METAR and TAF weather

Enter ICAO airport designator
Station Type Date Time Source
KBKD METAR 2020/12/06 01:35 UTC NOAA

KBKD 060135Z AUTO 00000KT 10SM SCT090 BKN110 11/M02 A3020 RMK AO2 T01121017


Station Type Date Time Source
KBKD Decoded METAR 2020/12/06 01:35 UTC NOAA

Station name not available
Dec 05, 2020 - 08:35 PM EST / 2020.12.06 0135 UTC
Wind: Calm:0
Visibility: 10 mile(s):0
Sky conditions: mostly cloudy
Temperature: 52.2 F (11.2 C)
Dew Point: 28.9 F (-1.7 C)
Relative Humidity: 40%
Pressure (altimeter): 30.2 in. Hg (1022 hPa)
ob: KBKD 060135Z AUTO 00000KT 10SM SCT090 BKN110 11/M02 A3020 RMK AO2 T01121017
cycle: 1

Station Type Date Time Source
KBKD TAF UTC NOAA

Error!

Example: see airport list